sensor_id;sensor_type;location;lat;lon;timestamp;P1;durP1;ratioP1;P2;durP2;ratioP2
14704;SDS011;7442;50.840;3.396;2022-11-14T00:00:30;12.55;;;10.00;;
14704;SDS011;7442;50.840;3.396;2022-11-14T00:03:01;10.13;;;9.08;;
14704;SDS011;7442;50.840;3.396;2022-11-14T00:05:37;10.95;;;9.45;;
14704;SDS011;7442;50.840;3.396;2022-11-14T00:08:06;9.23;;;8.23;;
14704;SDS011;7442;50.840;3.396;2022-11-14T00:10:48;10.65;;;9.38;;
14704;SDS011;7442;50.840;3.396;2022-11-14T00:13:19;10.40;;;8.60;;
14704;SDS011;7442;50.840;3.396;2022-11-14T00:15:50;11.48;;;8.93;;
14704;SDS011;7442;50.840;3.396;2022-11-14T00:18:24;9.45;;;8.35;;
14704;SDS011;7442;50.840;3.396;2022-11-14T00:20:54;10.25;;;8.73;;
14704;SDS011;7442;50.840;3.396;2022-11-14T00:23:24;10.00;;;8.25;;
14704;SDS011;7442;50.840;3.396;2022-11-14T00:25:54;9.63;;;8.05;;
14704;SDS011;7442;50.840;3.396;2022-11-14T00:28:24;9.50;;;8.10;;
14704;SDS011;7442;50.840;3.396;2022-11-14T00:30:54;12.23;;;8.23;;
14704;SDS011;7442;50.840;3.396;2022-11-14T00:33:24;9.50;;;8.50;;
14704;SDS011;7442;50.840;3.396;2022-11-14T00:35:54;8.95;;;7.87;;
14704;SDS011;7442;50.840;3.396;2022-11-14T00:38:25;8.80;;;7.83;;
14704;SDS011;7442;50.840;3.396;2022-11-14T00:40:55;8.13;;;7.33;;
14704;SDS011;7442;50.840;3.396;2022-11-14T00:43:25;9.98;;;8.13;;
14704;SDS011;7442;50.840;3.396;2022-11-14T00:45:55;9.63;;;7.53;;
14704;SDS011;7442;50.840;3.396;2022-11-14T00:48:25;11.75;;;7.50;;
14704;SDS011;7442;50.840;3.396;2022-11-14T00:50:55;8.63;;;7.72;;
14704;SDS011;7442;50.840;3.396;2022-11-14T00:53:25;9.68;;;8.18;;
14704;SDS011;7442;50.840;3.396;2022-11-14T00:55:55;8.80;;;7.90;;
14704;SDS011;7442;50.840;3.396;2022-11-14T00:58:25;9.33;;;7.75;;
14704;SDS011;7442;50.840;3.396;2022-11-14T01:00:55;8.05;;;7.20;;
14704;SDS011;7442;50.840;3.396;2022-11-14T01:03:25;7.95;;;7.12;;
14704;SDS011;7442;50.840;3.396;2022-11-14T01:05:55;8.45;;;7.40;;
14704;SDS011;7442;50.840;3.396;2022-11-14T01:08:25;8.85;;;7.00;;
14704;SDS011;7442;50.840;3.396;2022-11-14T01:10:55;9.05;;;7.35;;
14704;SDS011;7442;50.840;3.396;2022-11-14T01:13:29;8.48;;;7.62;;
14704;SDS011;7442;50.840;3.396;2022-11-14T01:16:01;8.10;;;7.05;;
14704;SDS011;7442;50.840;3.396;2022-11-14T01:18:31;8.63;;;7.30;;
14704;SDS011;7442;50.840;3.396;2022-11-14T01:21:05;8.18;;;7.22;;
14704;SDS011;7442;50.840;3.396;2022-11-14T01:23:39;7.65;;;6.90;;
14704;SDS011;7442;50.840;3.396;2022-11-14T01:26:11;9.23;;;7.50;;
14704;SDS011;7442;50.840;3.396;2022-11-14T01:28:42;7.70;;;6.85;;
14704;SDS011;7442;50.840;3.396;2022-11-14T01:31:14;7.75;;;7.00;;
14704;SDS011;7442;50.840;3.396;2022-11-14T01:33:51;7.50;;;6.70;;
14704;SDS011;7442;50.840;3.396;2022-11-14T01:36:18;8.30;;;7.47;;
14704;SDS011;7442;50.840;3.396;2022-11-14T01:38:52;7.45;;;6.75;;
14704;SDS011;7442;50.840;3.396;2022-11-14T01:41:22;8.23;;;6.85;;
14704;SDS011;7442;50.840;3.396;2022-11-14T01:43:53;6.90;;;6.17;;
14704;SDS011;7442;50.840;3.396;2022-11-14T01:46:36;7.30;;;6.60;;
14704;SDS011;7442;50.840;3.396;2022-11-14T01:49:21;6.30;;;5.70;;
14704;SDS011;7442;50.840;3.396;2022-11-14T01:52:04;8.33;;;6.70;;
14704;SDS011;7442;50.840;3.396;2022-11-14T01:54:37;7.35;;;6.58;;
14704;SDS011;7442;50.840;3.396;2022-11-14T01:57:09;7.65;;;6.95;;
14704;SDS011;7442;50.840;3.396;2022-11-14T01:59:42;6.72;;;6.05;;
14704;SDS011;7442;50.840;3.396;2022-11-14T02:02:16;7.20;;;6.50;;
14704;SDS011;7442;50.840;3.396;2022-11-14T02:04:49;8.38;;;6.95;;
14704;SDS011;7442;50.840;3.396;2022-11-14T02:07:24;7.17;;;6.47;;
14704;SDS011;7442;50.840;3.396;2022-11-14T02:09:56;7.58;;;6.30;;
14704;SDS011;7442;50.840;3.396;2022-11-14T02:12:28;6.45;;;5.85;;
14704;SDS011;7442;50.840;3.396;2022-11-14T02:14:58;7.28;;;6.40;;
14704;SDS011;7442;50.840;3.396;2022-11-14T02:17:28;7.92;;;6.25;;
14704;SDS011;7442;50.840;3.396;2022-11-14T02:22:41;7.05;;;6.22;;
14704;SDS011;7442;50.840;3.396;2022-11-14T02:25:12;9.10;;;6.10;;
14704;SDS011;7442;50.840;3.396;2022-11-14T02:27:44;7.28;;;6.35;;
14704;SDS011;7442;50.840;3.396;2022-11-14T02:30:16;6.20;;;5.60;;
14704;SDS011;7442;50.840;3.396;2022-11-14T02:32:48;6.20;;;5.30;;
14704;SDS011;7442;50.840;3.396;2022-11-14T02:35:18;6.40;;;5.80;;
14704;SDS011;7442;50.840;3.396;2022-11-14T02:37:48;6.22;;;5.72;;
14704;SDS011;7442;50.840;3.396;2022-11-14T02:40:18;6.40;;;5.78;;
14704;SDS011;7442;50.840;3.396;2022-11-14T02:42:48;7.40;;;6.08;;
14704;SDS011;7442;50.840;3.396;2022-11-14T02:45:18;6.62;;;6.03;;
14704;SDS011;7442;50.840;3.396;2022-11-14T02:47:48;6.53;;;5.92;;
14704;SDS011;7442;50.840;3.396;2022-11-14T02:50:22;7.53;;;5.90;;
14704;SDS011;7442;50.840;3.396;2022-11-14T02:52:52;6.20;;;5.60;;
14704;SDS011;7442;50.840;3.396;2022-11-14T02:55:23;6.33;;;5.72;;
14704;SDS011;7442;50.840;3.396;2022-11-14T02:57:53;6.53;;;5.83;;
14704;SDS011;7442;50.840;3.396;2022-11-14T03:00:23;6.22;;;5.62;;
14704;SDS011;7442;50.840;3.396;2022-11-14T03:02:53;6.37;;;5.78;;
14704;SDS011;7442;50.840;3.396;2022-11-14T03:05:23;5.87;;;5.33;;
14704;SDS011;7442;50.840;3.396;2022-11-14T03:07:53;5.72;;;5.22;;
14704;SDS011;7442;50.840;3.396;2022-11-14T03:10:24;5.78;;;5.17;;
14704;SDS011;7442;50.840;3.396;2022-11-14T03:12:54;6.53;;;5.58;;
14704;SDS011;7442;50.840;3.396;2022-11-14T03:15:25;6.45;;;5.37;;
14704;SDS011;7442;50.840;3.396;2022-11-14T03:17:55;5.50;;;4.97;;
14704;SDS011;7442;50.840;3.396;2022-11-14T03:20:25;5.53;;;5.03;;
14704;SDS011;7442;50.840;3.396;2022-11-14T03:22:55;5.62;;;5.10;;
14704;SDS011;7442;50.840;3.396;2022-11-14T03:25:25;5.42;;;4.92;;
14704;SDS011;7442;50.840;3.396;2022-11-14T03:27:55;5.90;;;5.28;;
14704;SDS011;7442;50.840;3.396;2022-11-14T03:30:25;6.20;;;5.40;;
14704;SDS011;7442;50.840;3.396;2022-11-14T03:32:55;5.28;;;4.78;;
14704;SDS011;7442;50.840;3.396;2022-11-14T03:35:26;4.92;;;4.40;;
14704;SDS011;7442;50.840;3.396;2022-11-14T03:37:55;6.35;;;5.33;;
14704;SDS011;7442;50.840;3.396;2022-11-14T03:40:25;5.70;;;5.20;;
14704;SDS011;7442;50.840;3.396;2022-11-14T03:42:55;5.60;;;5.10;;
14704;SDS011;7442;50.840;3.396;2022-11-14T03:45:25;5.75;;;5.03;;
14704;SDS011;7442;50.840;3.396;2022-11-14T03:47:55;5.58;;;4.95;;
14704;SDS011;7442;50.840;3.396;2022-11-14T03:50:25;6.15;;;5.37;;
14704;SDS011;7442;50.840;3.396;2022-11-14T03:52:56;5.83;;;5.22;;
14704;SDS011;7442;50.840;3.396;2022-11-14T03:55:27;4.78;;;4.37;;
14704;SDS011;7442;50.840;3.396;2022-11-14T03:57:57;5.58;;;5.08;;
14704;SDS011;7442;50.840;3.396;2022-11-14T04:00:27;5.33;;;4.78;;
14704;SDS011;7442;50.840;3.396;2022-11-14T04:02:57;5.15;;;4.65;;
14704;SDS011;7442;50.840;3.396;2022-11-14T04:05:27;4.60;;;4.20;;
14704;SDS011;7442;50.840;3.396;2022-11-14T04:07:57;5.65;;;4.90;;
14704;SDS011;7442;50.840;3.396;2022-11-14T04:10:27;4.72;;;4.28;;
14704;SDS011;7442;50.840;3.396;2022-11-14T04:12:57;5.08;;;4.58;;
14704;SDS011;7442;50.840;3.396;2022-11-14T04:15:27;4.92;;;4.50;;
14704;SDS011;7442;50.840;3.396;2022-11-14T04:17:57;5.10;;;4.60;;
14704;SDS011;7442;50.840;3.396;2022-11-14T04:20:27;4.83;;;4.42;;
14704;SDS011;7442;50.840;3.396;2022-11-14T04:22:57;4.25;;;3.85;;
14704;SDS011;7442;50.840;3.396;2022-11-14T04:25:27;4.47;;;4.08;;
14704;SDS011;7442;50.840;3.396;2022-11-14T04:27:57;4.45;;;4.05;;
14704;SDS011;7442;50.840;3.396;2022-11-14T04:30:27;5.15;;;4.65;;
14704;SDS011;7442;50.840;3.396;2022-11-14T04:32:57;4.17;;;3.80;;
14704;SDS011;7442;50.840;3.396;2022-11-14T04:35:27;4.83;;;4.28;;
14704;SDS011;7442;50.840;3.396;2022-11-14T04:37:57;4.65;;;4.25;;
14704;SDS011;7442;50.840;3.396;2022-11-14T04:40:27;4.65;;;4.12;;
14704;SDS011;7442;50.840;3.396;2022-11-14T04:42:58;4.83;;;4.33;;
14704;SDS011;7442;50.840;3.396;2022-11-14T04:45:28;4.08;;;3.77;;
14704;SDS011;7442;50.840;3.396;2022-11-14T04:47:58;4.08;;;3.77;;
14704;SDS011;7442;50.840;3.396;2022-11-14T04:50:28;4.87;;;4.37;;
14704;SDS011;7442;50.840;3.396;2022-11-14T04:52:58;4.30;;;3.90;;
14704;SDS011;7442;50.840;3.396;2022-11-14T04:55:28;4.05;;;3.67;;
14704;SDS011;7442;50.840;3.396;2022-11-14T04:57:58;5.03;;;4.53;;
14704;SDS011;7442;50.840;3.396;2022-11-14T05:00:28;4.85;;;4.20;;
14704;SDS011;7442;50.840;3.396;2022-11-14T05:02:58;4.50;;;4.10;;
14704;SDS011;7442;50.840;3.396;2022-11-14T05:05:28;4.17;;;3.77;;
14704;SDS011;7442;50.840;3.396;2022-11-14T05:07:59;4.92;;;4.53;;
14704;SDS011;7442;50.840;3.396;2022-11-14T05:10:29;4.20;;;3.85;;
14704;SDS011;7442;50.840;3.396;2022-11-14T05:12:59;4.62;;;4.17;;
14704;SDS011;7442;50.840;3.396;2022-11-14T05:15:29;5.05;;;4.55;;
14704;SDS011;7442;50.840;3.396;2022-11-14T05:17:59;3.90;;;3.55;;
14704;SDS011;7442;50.840;3.396;2022-11-14T05:20:29;4.15;;;3.77;;
14704;SDS011;7442;50.840;3.396;2022-11-14T05:22:59;3.37;;;3.12;;
14704;SDS011;7442;50.840;3.396;2022-11-14T05:25:29;4.08;;;3.77;;
14704;SDS011;7442;50.840;3.396;2022-11-14T05:28:00;4.10;;;3.70;;
14704;SDS011;7442;50.840;3.396;2022-11-14T05:30:30;4.00;;;3.60;;
14704;SDS011;7442;50.840;3.396;2022-11-14T05:33:00;4.17;;;3.77;;
14704;SDS011;7442;50.840;3.396;2022-11-14T05:35:30;3.95;;;3.65;;
14704;SDS011;7442;50.840;3.396;2022-11-14T05:38:00;4.53;;;3.95;;
14704;SDS011;7442;50.840;3.396;2022-11-14T05:40:30;3.80;;;3.50;;
14704;SDS011;7442;50.840;3.396;2022-11-14T05:43:00;4.58;;;3.70;;
14704;SDS011;7442;50.840;3.396;2022-11-14T05:45:30;3.77;;;3.40;;
14704;SDS011;7442;50.840;3.396;2022-11-14T05:48:00;3.72;;;3.42;;
14704;SDS011;7442;50.840;3.396;2022-11-14T05:50:30;3.60;;;3.30;;
14704;SDS011;7442;50.840;3.396;2022-11-14T05:53:00;3.83;;;3.52;;
14704;SDS011;7442;50.840;3.396;2022-11-14T05:55:30;4.05;;;3.65;;
14704;SDS011;7442;50.840;3.396;2022-11-14T05:58:01;4.15;;;3.72;;
14704;SDS011;7442;50.840;3.396;2022-11-14T06:00:31;3.70;;;3.40;;
14704;SDS011;7442;50.840;3.396;2022-11-14T06:03:01;3.90;;;3.60;;
14704;SDS011;7442;50.840;3.396;2022-11-14T06:05:31;3.83;;;3.42;;
14704;SDS011;7442;50.840;3.396;2022-11-14T06:08:03;4.58;;;3.45;;
14704;SDS011;7442;50.840;3.396;2022-11-14T06:10:34;4.67;;;3.50;;
14704;SDS011;7442;50.840;3.396;2022-11-14T06:13:04;4.05;;;3.65;;
14704;SDS011;7442;50.840;3.396;2022-11-14T06:15:34;3.80;;;3.47;;
14704;SDS011;7442;50.840;3.396;2022-11-14T06:18:04;6.00;;;3.27;;
14704;SDS011;7442;50.840;3.396;2022-11-14T06:20:34;10.45;;;4.37;;
14704;SDS011;7442;50.840;3.396;2022-11-14T06:23:04;7.03;;;4.20;;
14704;SDS011;7442;50.840;3.396;2022-11-14T06:25:35;6.70;;;4.47;;
14704;SDS011;7442;50.840;3.396;2022-11-14T06:28:05;11.93;;;4.67;;
14704;SDS011;7442;50.840;3.396;2022-11-14T06:30:35;8.70;;;4.45;;
14704;SDS011;7442;50.840;3.396;2022-11-14T06:33:06;6.53;;;4.87;;
14704;SDS011;7442;50.840;3.396;2022-11-14T06:35:36;7.08;;;4.67;;
14704;SDS011;7442;50.840;3.396;2022-11-14T06:38:06;8.50;;;5.47;;
14704;SDS011;7442;50.840;3.396;2022-11-14T06:40:36;7.95;;;5.20;;
14704;SDS011;7442;50.840;3.396;2022-11-14T06:43:06;9.40;;;4.45;;
14704;SDS011;7442;50.840;3.396;2022-11-14T06:45:36;9.75;;;5.10;;
14704;SDS011;7442;50.840;3.396;2022-11-14T06:48:06;9.50;;;4.65;;
14704;SDS011;7442;50.840;3.396;2022-11-14T06:50:37;4.85;;;4.05;;
14704;SDS011;7442;50.840;3.396;2022-11-14T06:53:07;7.22;;;4.60;;
14704;SDS011;7442;50.840;3.396;2022-11-14T06:55:37;6.08;;;4.40;;
14704;SDS011;7442;50.840;3.396;2022-11-14T06:58:07;5.83;;;4.60;;
14704;SDS011;7442;50.840;3.396;2022-11-14T07:00:37;5.60;;;4.33;;
14704;SDS011;7442;50.840;3.396;2022-11-14T07:03:07;4.58;;;3.98;;
14704;SDS011;7442;50.840;3.396;2022-11-14T07:05:37;6.10;;;4.22;;
14704;SDS011;7442;50.840;3.396;2022-11-14T07:08:07;7.50;;;4.35;;
14704;SDS011;7442;50.840;3.396;2022-11-14T07:10:37;6.03;;;4.20;;
14704;SDS011;7442;50.840;3.396;2022-11-14T07:13:07;7.50;;;4.83;;
14704;SDS011;7442;50.840;3.396;2022-11-14T07:15:47;5.92;;;4.90;;
14704;SDS011;7442;50.840;3.396;2022-11-14T07:18:18;12.05;;;4.37;;
14704;SDS011;7442;50.840;3.396;2022-11-14T07:20:49;11.22;;;5.95;;
14704;SDS011;7442;50.840;3.396;2022-11-14T07:23:20;9.53;;;6.25;;
14704;SDS011;7442;50.840;3.396;2022-11-14T07:25:50;10.63;;;6.08;;
14704;SDS011;7442;50.840;3.396;2022-11-14T07:28:20;18.37;;;6.97;;
14704;SDS011;7442;50.840;3.396;2022-11-14T07:30:51;24.35;;;13.45;;
14704;SDS011;7442;50.840;3.396;2022-11-14T07:33:22;26.25;;;14.55;;
14704;SDS011;7442;50.840;3.396;2022-11-14T07:35:52;22.13;;;13.85;;
14704;SDS011;7442;50.840;3.396;2022-11-14T07:38:22;19.82;;;13.28;;
14704;SDS011;7442;50.840;3.396;2022-11-14T07:40:59;17.87;;;12.50;;
14704;SDS011;7442;50.840;3.396;2022-11-14T07:43:30;16.60;;;12.15;;
14704;SDS011;7442;50.840;3.396;2022-11-14T07:46:01;18.23;;;11.75;;
14704;SDS011;7442;50.840;3.396;2022-11-14T07:48:33;15.98;;;10.98;;
14704;SDS011;7442;50.840;3.396;2022-11-14T07:51:06;19.45;;;11.60;;
14704;SDS011;7442;50.840;3.396;2022-11-14T07:53:37;16.75;;;10.35;;
14704;SDS011;7442;50.840;3.396;2022-11-14T07:56:07;18.87;;;10.25;;
14704;SDS011;7442;50.840;3.396;2022-11-14T07:58:38;15.68;;;9.93;;
14704;SDS011;7442;50.840;3.396;2022-11-14T08:01:10;15.63;;;9.08;;
14704;SDS011;7442;50.840;3.396;2022-11-14T08:03:41;14.45;;;9.20;;
14704;SDS011;7442;50.840;3.396;2022-11-14T08:06:12;14.68;;;9.40;;
14704;SDS011;7442;50.840;3.396;2022-11-14T08:08:44;12.58;;;8.68;;
14704;SDS011;7442;50.840;3.396;2022-11-14T08:11:14;13.80;;;8.80;;
14704;SDS011;7442;50.840;3.396;2022-11-14T08:13:47;12.47;;;8.38;;
14704;SDS011;7442;50.840;3.396;2022-11-14T08:16:17;17.77;;;8.55;;
14704;SDS011;7442;50.840;3.396;2022-11-14T08:18:47;15.48;;;7.95;;
14704;SDS011;7442;50.840;3.396;2022-11-14T08:21:17;12.98;;;8.18;;
14704;SDS011;7442;50.840;3.396;2022-11-14T08:23:47;9.70;;;7.37;;
14704;SDS011;7442;50.840;3.396;2022-11-14T08:26:17;13.43;;;7.58;;
14704;SDS011;7442;50.840;3.396;2022-11-14T08:28:50;15.68;;;7.78;;
14704;SDS011;7442;50.840;3.396;2022-11-14T08:31:22;10.07;;;6.83;;
14704;SDS011;7442;50.840;3.396;2022-11-14T08:33:52;10.45;;;6.60;;
14704;SDS011;7442;50.840;3.396;2022-11-14T08:36:22;12.78;;;6.22;;
14704;SDS011;7442;50.840;3.396;2022-11-14T08:38:52;9.50;;;6.20;;
14704;SDS011;7442;50.840;3.396;2022-11-14T08:41:22;14.50;;;7.42;;
14704;SDS011;7442;50.840;3.396;2022-11-14T08:43:52;19.85;;;8.33;;
14704;SDS011;7442;50.840;3.396;2022-11-14T08:46:22;13.48;;;7.45;;
14704;SDS011;7442;50.840;3.396;2022-11-14T08:48:52;14.95;;;7.03;;
14704;SDS011;7442;50.840;3.396;2022-11-14T08:51:23;12.82;;;7.60;;
14704;SDS011;7442;50.840;3.396;2022-11-14T08:53:53;11.68;;;7.00;;
14704;SDS011;7442;50.840;3.396;2022-11-14T08:56:23;17.48;;;7.25;;
14704;SDS011;7442;50.840;3.396;2022-11-14T08:58:53;15.60;;;7.33;;
14704;SDS011;7442;50.840;3.396;2022-11-14T09:01:23;15.88;;;7.97;;
14704;SDS011;7442;50.840;3.396;2022-11-14T09:03:53;13.78;;;7.15;;
14704;SDS011;7442;50.840;3.396;2022-11-14T09:06:23;13.95;;;7.05;;
14704;SDS011;7442;50.840;3.396;2022-11-14T09:08:53;17.50;;;7.42;;
14704;SDS011;7442;50.840;3.396;2022-11-14T09:11:23;13.65;;;6.80;;
14704;SDS011;7442;50.840;3.396;2022-11-14T09:13:54;13.53;;;7.03;;
14704;SDS011;7442;50.840;3.396;2022-11-14T09:16:24;12.90;;;6.97;;
14704;SDS011;7442;50.840;3.396;2022-11-14T09:18:54;12.58;;;6.78;;
14704;SDS011;7442;50.840;3.396;2022-11-14T09:21:24;11.15;;;6.95;;
14704;SDS011;7442;50.840;3.396;2022-11-14T09:23:54;12.18;;;7.15;;
14704;SDS011;7442;50.840;3.396;2022-11-14T09:26:24;8.80;;;6.83;;
14704;SDS011;7442;50.840;3.396;2022-11-14T09:28:54;12.37;;;6.60;;
14704;SDS011;7442;50.840;3.396;2022-11-14T09:31:24;12.13;;;6.00;;
14704;SDS011;7442;50.840;3.396;2022-11-14T09:33:54;16.15;;;7.03;;
14704;SDS011;7442;50.840;3.396;2022-11-14T09:36:24;10.98;;;6.30;;
14704;SDS011;7442;50.840;3.396;2022-11-14T09:38:54;9.80;;;6.87;;
14704;SDS011;7442;50.840;3.396;2022-11-14T09:41:25;9.95;;;7.08;;
14704;SDS011;7442;50.840;3.396;2022-11-14T09:46:48;10.03;;;6.85;;
14704;SDS011;7442;50.840;3.396;2022-11-14T09:49:29;10.10;;;7.20;;
14704;SDS011;7442;50.840;3.396;2022-11-14T09:52:12;10.78;;;7.75;;
14704;SDS011;7442;50.840;3.396;2022-11-14T09:54:56;12.05;;;7.42;;
14704;SDS011;7442;50.840;3.396;2022-11-14T09:57:28;10.65;;;7.08;;
14704;SDS011;7442;50.840;3.396;2022-11-14T09:59:59;13.18;;;7.40;;
14704;SDS011;7442;50.840;3.396;2022-11-14T10:05:23;32.40;;;13.83;;
14704;SDS011;7442;50.840;3.396;2022-11-14T10:16:11;44.77;;;18.05;;
14704;SDS011;7442;50.840;3.396;2022-11-14T10:18:48;36.88;;;15.72;;
14704;SDS011;7442;50.840;3.396;2022-11-14T10:21:52;32.70;;;15.20;;
14704;SDS011;7442;50.840;3.396;2022-11-14T10:24:30;33.28;;;14.58;;
14704;SDS011;7442;50.840;3.396;2022-11-14T10:27:09;27.55;;;13.15;;
14704;SDS011;7442;50.840;3.396;2022-11-14T10:32:41;22.85;;;11.50;;
14704;SDS011;7442;50.840;3.396;2022-11-14T10:35:15;24.12;;;12.25;;
14704;SDS011;7442;50.840;3.396;2022-11-14T10:40:58;20.50;;;10.63;;
14704;SDS011;7442;50.840;3.396;2022-11-14T10:43:39;17.52;;;10.28;;
14704;SDS011;7442;50.840;3.396;2022-11-14T10:46:37;19.40;;;10.35;;
14704;SDS011;7442;50.840;3.396;2022-11-14T10:48:50;15.25;;;9.58;;
14704;SDS011;7442;50.840;3.396;2022-11-14T10:54:21;19.42;;;9.35;;
14704;SDS011;7442;50.840;3.396;2022-11-14T10:56:49;18.98;;;9.55;;
14704;SDS011;7442;50.840;3.396;2022-11-14T10:59:21;15.08;;;8.73;;
14704;SDS011;7442;50.840;3.396;2022-11-14T11:01:56;17.25;;;9.25;;
14704;SDS011;7442;50.840;3.396;2022-11-14T11:04:34;15.83;;;9.10;;
14704;SDS011;7442;50.840;3.396;2022-11-14T11:09:43;15.72;;;8.35;;
14704;SDS011;7442;50.840;3.396;2022-11-14T11:17:57;16.00;;;8.63;;
14704;SDS011;7442;50.840;3.396;2022-11-14T11:25:41;32.95;;;17.55;;
14704;SDS011;7442;50.840;3.396;2022-11-14T11:33:36;33.73;;;20.92;;
14704;SDS011;7442;50.840;3.396;2022-11-14T11:36:12;38.58;;;21.12;;
14704;SDS011;7442;50.840;3.396;2022-11-14T11:38:43;29.30;;;20.10;;
14704;SDS011;7442;50.840;3.396;2022-11-14T11:41:20;32.45;;;18.20;;
14704;SDS011;7442;50.840;3.396;2022-11-14T11:43:58;30.27;;;16.12;;
14704;SDS011;7442;50.840;3.396;2022-11-14T11:46:46;27.90;;;16.45;;
14704;SDS011;7442;50.840;3.396;2022-11-14T11:57:52;21.23;;;13.43;;
14704;SDS011;7442;50.840;3.396;2022-11-14T12:00:29;18.67;;;12.43;;
14704;SDS011;7442;50.840;3.396;2022-11-14T12:03:00;19.45;;;11.73;;
14704;SDS011;7442;50.840;3.396;2022-11-14T12:08:25;19.52;;;12.03;;
14704;SDS011;7442;50.840;3.396;2022-11-14T12:10:55;16.12;;;10.93;;
14704;SDS011;7442;50.840;3.396;2022-11-14T12:13:40;14.58;;;10.18;;
14704;SDS011;7442;50.840;3.396;2022-11-14T12:16:23;16.80;;;10.20;;
14704;SDS011;7442;50.840;3.396;2022-11-14T12:21:44;16.02;;;9.80;;
14704;SDS011;7442;50.840;3.396;2022-11-14T12:27:24;15.13;;;9.70;;
14704;SDS011;7442;50.840;3.396;2022-11-14T12:32:44;13.80;;;8.43;;
14704;SDS011;7442;50.840;3.396;2022-11-14T12:35:22;13.65;;;8.95;;
14704;SDS011;7442;50.840;3.396;2022-11-14T12:37:55;16.60;;;8.93;;
14704;SDS011;7442;50.840;3.396;2022-11-14T12:40:31;12.15;;;8.68;;
14704;SDS011;7442;50.840;3.396;2022-11-14T12:43:23;16.05;;;9.28;;
14704;SDS011;7442;50.840;3.396;2022-11-14T12:45:57;15.80;;;8.83;;
14704;SDS011;7442;50.840;3.396;2022-11-14T12:48:30;12.25;;;8.20;;
14704;SDS011;7442;50.840;3.396;2022-11-14T12:51:02;13.50;;;9.20;;
14704;SDS011;7442;50.840;3.396;2022-11-14T12:56:23;17.27;;;10.50;;
14704;SDS011;7442;50.840;3.396;2022-11-14T13:12:41;14.80;;;9.75;;
14704;SDS011;7442;50.840;3.396;2022-11-14T13:15:32;14.40;;;10.32;;
14704;SDS011;7442;50.840;3.396;2022-11-14T13:18:24;14.47;;;9.68;;
14704;SDS011;7442;50.840;3.396;2022-11-14T13:24:17;13.40;;;9.85;;
14704;SDS011;7442;50.840;3.396;2022-11-14T13:26:48;12.55;;;9.35;;
14704;SDS011;7442;50.840;3.396;2022-11-14T13:51:50;10.45;;;8.13;;
14704;SDS011;7442;50.840;3.396;2022-11-14T13:54:22;12.25;;;8.43;;
14704;SDS011;7442;50.840;3.396;2022-11-14T13:57:00;11.73;;;8.33;;
14704;SDS011;7442;50.840;3.396;2022-11-14T14:05:17;10.60;;;7.90;;
14704;SDS011;7442;50.840;3.396;2022-11-14T14:19:13;15.95;;;12.90;;
14704;SDS011;7442;50.840;3.396;2022-11-14T14:29:50;19.73;;;12.30;;
14704;SDS011;7442;50.840;3.396;2022-11-14T14:32:25;16.67;;;11.83;;
14704;SDS011;7442;50.840;3.396;2022-11-14T14:34:55;17.75;;;12.00;;
14704;SDS011;7442;50.840;3.396;2022-11-14T14:37:27;15.98;;;11.30;;
14704;SDS011;7442;50.840;3.396;2022-11-14T14:40:06;16.57;;;11.05;;
14704;SDS011;7442;50.840;3.396;2022-11-14T14:42:44;15.88;;;11.75;;
14704;SDS011;7442;50.840;3.396;2022-11-14T14:45:16;13.68;;;10.63;;
14704;SDS011;7442;50.840;3.396;2022-11-14T14:47:48;15.20;;;10.78;;
14704;SDS011;7442;50.840;3.396;2022-11-14T14:50:21;16.17;;;11.08;;
14704;SDS011;7442;50.840;3.396;2022-11-14T14:52:54;16.67;;;10.75;;
14704;SDS011;7442;50.840;3.396;2022-11-14T14:55:27;15.43;;;10.13;;
14704;SDS011;7442;50.840;3.396;2022-11-14T14:58:13;13.88;;;10.88;;
14704;SDS011;7442;50.840;3.396;2022-11-14T15:03:35;10.98;;;9.23;;
14704;SDS011;7442;50.840;3.396;2022-11-14T15:06:21;15.77;;;9.80;;
14704;SDS011;7442;50.840;3.396;2022-11-14T15:09:07;13.93;;;9.40;;
14704;SDS011;7442;50.840;3.396;2022-11-14T15:11:50;12.60;;;9.80;;
14704;SDS011;7442;50.840;3.396;2022-11-14T15:14:27;10.90;;;9.65;;
14704;SDS011;7442;50.840;3.396;2022-11-14T15:16:55;12.45;;;9.65;;
14704;SDS011;7442;50.840;3.396;2022-11-14T15:19:30;10.70;;;8.90;;
14704;SDS011;7442;50.840;3.396;2022-11-14T15:27:46;10.15;;;9.05;;
14704;SDS011;7442;50.840;3.396;2022-11-14T15:30:22;10.98;;;8.68;;
14704;SDS011;7442;50.840;3.396;2022-11-14T15:32:55;10.55;;;9.08;;
14704;SDS011;7442;50.840;3.396;2022-11-14T15:35:33;12.25;;;9.15;;
14704;SDS011;7442;50.840;3.396;2022-11-14T15:40:46;11.43;;;9.20;;
14704;SDS011;7442;50.840;3.396;2022-11-14T15:43:34;13.10;;;9.13;;
14704;SDS011;7442;50.840;3.396;2022-11-14T15:49:26;9.38;;;8.30;;
14704;SDS011;7442;50.840;3.396;2022-11-14T15:51:57;10.25;;;8.08;;
14704;SDS011;7442;50.840;3.396;2022-11-14T15:54:30;11.25;;;9.13;;
14704;SDS011;7442;50.840;3.396;2022-11-14T15:57:08;10.85;;;8.80;;
14704;SDS011;7442;50.840;3.396;2022-11-14T15:59:45;11.48;;;9.23;;
14704;SDS011;7442;50.840;3.396;2022-11-14T16:02:17;11.83;;;9.15;;
14704;SDS011;7442;50.840;3.396;2022-11-14T16:04:49;10.75;;;8.33;;
14704;SDS011;7442;50.840;3.396;2022-11-14T16:07:20;10.60;;;8.50;;
14704;SDS011;7442;50.840;3.396;2022-11-14T16:09:51;14.55;;;8.50;;
14704;SDS011;7442;50.840;3.396;2022-11-14T16:12:22;10.53;;;7.72;;
14704;SDS011;7442;50.840;3.396;2022-11-14T16:14:52;10.72;;;8.25;;
14704;SDS011;7442;50.840;3.396;2022-11-14T16:17:22;9.98;;;8.10;;
14704;SDS011;7442;50.840;3.396;2022-11-14T16:19:52;10.60;;;8.38;;
14704;SDS011;7442;50.840;3.396;2022-11-14T16:22:22;11.10;;;7.92;;
14704;SDS011;7442;50.840;3.396;2022-11-14T16:24:57;10.13;;;8.18;;
14704;SDS011;7442;50.840;3.396;2022-11-14T16:27:28;11.95;;;7.90;;
14704;SDS011;7442;50.840;3.396;2022-11-14T16:29:58;10.20;;;8.08;;
14704;SDS011;7442;50.840;3.396;2022-11-14T16:32:28;10.23;;;7.90;;
14704;SDS011;7442;50.840;3.396;2022-11-14T16:34:58;9.05;;;7.53;;
14704;SDS011;7442;50.840;3.396;2022-11-14T16:37:28;8.60;;;7.55;;
14704;SDS011;7442;50.840;3.396;2022-11-14T16:39:58;9.40;;;7.70;;
14704;SDS011;7442;50.840;3.396;2022-11-14T16:42:28;10.63;;;8.03;;
14704;SDS011;7442;50.840;3.396;2022-11-14T16:44:58;10.32;;;7.28;;
14704;SDS011;7442;50.840;3.396;2022-11-14T16:47:29;9.50;;;7.25;;
14704;SDS011;7442;50.840;3.396;2022-11-14T16:50:00;9.10;;;7.72;;
14704;SDS011;7442;50.840;3.396;2022-11-14T16:52:30;9.55;;;7.80;;
14704;SDS011;7442;50.840;3.396;2022-11-14T16:55:00;8.73;;;7.65;;
14704;SDS011;7442;50.840;3.396;2022-11-14T16:57:30;9.65;;;7.58;;
14704;SDS011;7442;50.840;3.396;2022-11-14T17:00:02;9.85;;;7.62;;
14704;SDS011;7442;50.840;3.396;2022-11-14T17:02:32;8.60;;;7.50;;
14704;SDS011;7442;50.840;3.396;2022-11-14T17:05:03;11.10;;;8.48;;
14704;SDS011;7442;50.840;3.396;2022-11-14T17:07:33;10.60;;;8.10;;
14704;SDS011;7442;50.840;3.396;2022-11-14T17:10:04;10.90;;;8.55;;
14704;SDS011;7442;50.840;3.396;2022-11-14T17:12:35;9.95;;;8.38;;
14704;SDS011;7442;50.840;3.396;2022-11-14T17:15:05;10.85;;;8.70;;
14704;SDS011;7442;50.840;3.396;2022-11-14T17:17:35;11.00;;;8.45;;
14704;SDS011;7442;50.840;3.396;2022-11-14T17:20:05;10.43;;;8.05;;
14704;SDS011;7442;50.840;3.396;2022-11-14T17:22:36;11.03;;;8.53;;
14704;SDS011;7442;50.840;3.396;2022-11-14T17:25:06;9.53;;;7.53;;
14704;SDS011;7442;50.840;3.396;2022-11-14T17:27:36;11.85;;;8.63;;
14704;SDS011;7442;50.840;3.396;2022-11-14T17:30:07;14.33;;;9.35;;
14704;SDS011;7442;50.840;3.396;2022-11-14T17:32:39;70.17;;;38.50;;
14704;SDS011;7442;50.840;3.396;2022-11-14T17:35:10;57.23;;;34.05;;
14704;SDS011;7442;50.840;3.396;2022-11-14T17:37:41;52.25;;;29.75;;
14704;SDS011;7442;50.840;3.396;2022-11-14T17:40:11;61.77;;;28.83;;
14704;SDS011;7442;50.840;3.396;2022-11-14T17:42:41;50.88;;;29.52;;
14704;SDS011;7442;50.840;3.396;2022-11-14T17:45:11;48.90;;;27.58;;
14704;SDS011;7442;50.840;3.396;2022-11-14T17:47:41;47.83;;;26.05;;